QTR706 KJFK-OTHH
Flight info
| Callsign | QTR706 |
|---|---|
| Flight time | N/A |
| Altitude | 35000 |
| Route | SHIPP Y487 ISLES DCT JENYY DCT DOVEY/M085F350 DCT 42N060W 44N050W 44N040W/M085F370 44N030W 4330N02000W DCT ARMED/N0490F370 DCT BARDI/N0486F390 DCT RIDAV DCT DIPOL DCT NVS DCT NANDO DCT MINGU DCT ABOSI DCT MABUX DCT RETBA DCT MOPIR DCT LASPO DCT LUXUR UM134 ANB UA411 MORJA DCT SONAK DCT DINUX DCT ARLOS DCT SALUN N705 MMA/N0484F410 P751 DASUM Y234 FYM M872 WEJ L604 KFA M691 LADNA N318 HAYYA |
| Aircraft | A359/H-SDE2E3GHIJ1J3J4J5LM1ORWXY/LB1D1 |
Departure
| Time | 2026-05-06 10:13 |
|---|---|
| Airport | John F. Kennedy International Airport (KJFK) |
Arrival
| Time | N/A |
|---|---|
| Airport | Hamad International Airport (OTHH) |
| Time | Latitude | Longitude | Altitude | Speed | Heading |
|---|---|---|---|---|---|
| 2026-05-06 09:43 | 40.65074 | -73.79020 | 30 ft | 0 kts | 310° |
| 2026-05-06 09:59 | 40.65068 | -73.79011 | 30 ft | 4 kts | 310° |
| 2026-05-06 09:59 | 40.65051 | -73.78986 | 28 ft | 2 kts | 310° |
| 2026-05-06 09:59 | 40.65036 | -73.78966 | 28 ft | 4 kts | 347° |
| 2026-05-06 10:00 | 40.65020 | -73.78973 | 29 ft | 3 kts | 60° |
| 2026-05-06 10:00 | 40.65007 | -73.79003 | 27 ft | 3 kts | 60° |
| 2026-05-06 10:00 | 40.65005 | -73.79009 | 28 ft | 0 kts | 60° |
| 2026-05-06 10:02 | 40.65014 | -73.78987 | 28 ft | 7 kts | 62° |
| 2026-05-06 10:02 | 40.65056 | -73.78923 | 30 ft | 10 kts | 21° |
| 2026-05-06 10:02 | 40.65119 | -73.78895 | 30 ft | 9 kts | 44° |
| 2026-05-06 10:03 | 40.65138 | -73.78819 | 30 ft | 9 kts | 77° |
| 2026-05-06 10:03 | 40.65156 | -73.78733 | 30 ft | 10 kts | 68° |
| 2026-05-06 10:03 | 40.65190 | -73.78651 | 32 ft | 8 kts | 60° |
| 2026-05-06 10:03 | 40.65210 | -73.78602 | 34 ft | 7 kts | 61° |
| 2026-05-06 10:04 | 40.65242 | -73.78525 | 29 ft | 13 kts | 61° |
| 2026-05-06 10:04 | 40.65265 | -73.78413 | 29 ft | 13 kts | 95° |
| 2026-05-06 10:04 | 40.65235 | -73.78312 | 32 ft | 11 kts | 119° |
| 2026-05-06 10:04 | 40.65189 | -73.78206 | 31 ft | 14 kts | 120° |
| 2026-05-06 10:05 | 40.65134 | -73.78084 | 29 ft | 16 kts | 121° |
| 2026-05-06 10:05 | 40.65075 | -73.77958 | 28 ft | 17 kts | 121° |
| 2026-05-06 10:05 | 40.65013 | -73.77820 | 31 ft | 18 kts | 120° |
| 2026-05-06 10:05 | 40.64950 | -73.77680 | 27 ft | 17 kts | 121° |
| 2026-05-06 10:06 | 40.64908 | -73.77561 | 26 ft | 10 kts | 79° |
| 2026-05-06 10:06 | 40.64943 | -73.77501 | 28 ft | 3 kts | 40° |
| 2026-05-06 10:06 | 40.64944 | -73.77500 | 28 ft | 0 kts | 40° |
| 2026-05-06 10:07 | 40.64975 | -73.77467 | 31 ft | 11 kts | 38° |
| 2026-05-06 10:08 | 40.65053 | -73.77424 | 26 ft | 12 kts | 21° |
| 2026-05-06 10:08 | 40.65123 | -73.77375 | 30 ft | 8 kts | 30° |
| 2026-05-06 10:08 | 40.65132 | -73.77343 | 31 ft | 0 kts | 94° |
| 2026-05-06 10:09 | 40.65132 | -73.77342 | 31 ft | 0 kts | 95° |
| 2026-05-06 10:09 | 40.65131 | -73.77341 | 31 ft | 0 kts | 99° |
| 2026-05-06 10:09 | 40.65129 | -73.77333 | 30 ft | 2 kts | 107° |
| 2026-05-06 10:09 | 40.65119 | -73.77297 | 31 ft | 6 kts | 114° |
| 2026-05-06 10:10 | 40.65093 | -73.77235 | 31 ft | 9 kts | 119° |
| 2026-05-06 10:10 | 40.65055 | -73.77151 | 27 ft | 12 kts | 121° |
| 2026-05-06 10:10 | 40.65008 | -73.77047 | 27 ft | 14 kts | 121° |
| 2026-05-06 10:10 | 40.64951 | -73.76922 | 27 ft | 17 kts | 121° |
| 2026-05-06 10:11 | 40.64887 | -73.76779 | 28 ft | 18 kts | 120° |
| 2026-05-06 10:11 | 40.64924 | -73.76663 | 27 ft | 17 kts | 32° |
| 2026-05-06 10:11 | 40.65039 | -73.76572 | 27 ft | 19 kts | 32° |
| 2026-05-06 10:11 | 40.65106 | -73.76480 | 28 ft | 4 kts | 112° |
| 2026-05-06 10:12 | 40.65083 | -73.76437 | 29 ft | 9 kts | 124° |
| 2026-05-06 10:12 | 40.65038 | -73.76377 | 29 ft | 9 kts | 162° |
| 2026-05-06 10:12 | 40.64983 | -73.76390 | 29 ft | 8 kts | 203° |
| 2026-05-06 10:12 | 40.64909 | -73.76445 | 28 ft | 22 kts | 210° |
| 2026-05-06 10:13 | 40.64588 | -73.76695 | 31 ft | 84 kts | 211° |
| 2026-05-06 10:13 | 40.63928 | -73.77212 | 27 ft | 136 kts | 211° |
| 2026-05-06 10:13 | 40.63006 | -73.77945 | 277 ft | 157 kts | 210° |
| 2026-05-06 10:13 | 40.62133 | -73.78656 | 1074 ft | 144 kts | 211° |
| 2026-05-06 10:14 | 40.61280 | -73.79317 | 1588 ft | 145 kts | 213° |
| 2026-05-06 10:14 | 40.60362 | -73.79991 | 1876 ft | 158 kts | 213° |
| 2026-05-06 10:14 | 40.59261 | -73.80492 | 2058 ft | 185 kts | 191° |
| 2026-05-06 10:14 | 40.57928 | -73.79987 | 2303 ft | 222 kts | 157° |
| 2026-05-06 10:15 | 40.56808 | -73.78358 | 2495 ft | 262 kts | 126° |
| 2026-05-06 10:15 | 40.56205 | -73.75969 | 2846 ft | 284 kts | 109° |
| 2026-05-06 10:15 | 40.55813 | -73.73406 | 3442 ft | 287 kts | 107° |
| 2026-05-06 10:15 | 40.55443 | -73.70830 | 4045 ft | 287 kts | 107° |
| 2026-05-06 10:16 | 40.55069 | -73.68251 | 4632 ft | 288 kts | 107° |
| 2026-05-06 10:16 | 40.54678 | -73.65660 | 5219 ft | 288 kts | 109° |
| 2026-05-06 10:16 | 40.54119 | -73.63142 | 5833 ft | 284 kts | 117° |
| 2026-05-06 10:16 | 40.53234 | -73.60858 | 6461 ft | 279 kts | 127° |
| 2026-05-06 10:17 | 40.52201 | -73.58687 | 7039 ft | 280 kts | 130° |
| 2026-05-06 10:17 | 40.51085 | -73.56575 | 7629 ft | 282 kts | 133° |
| 2026-05-06 10:17 | 40.49922 | -73.54498 | 8223 ft | 284 kts | 134° |
| 2026-05-06 10:17 | 40.48727 | -73.52417 | 8852 ft | 286 kts | 135° |
| 2026-05-06 10:18 | 40.47521 | -73.50329 | 9495 ft | 288 kts | 135° |
| 2026-05-06 10:18 | 40.46320 | -73.48244 | 10073 ft | 291 kts | 135° |
| 2026-05-06 10:18 | 40.45070 | -73.46072 | 10387 ft | 305 kts | 135° |
| 2026-05-06 10:18 | 40.43755 | -73.43786 | 10633 ft | 320 kts | 134° |
| 2026-05-06 10:19 | 40.42387 | -73.41394 | 10888 ft | 335 kts | 134° |
| 2026-05-06 10:19 | 40.40964 | -73.38895 | 11149 ft | 349 kts | 134° |
| 2026-05-06 10:19 | 40.39486 | -73.36292 | 11411 ft | 362 kts | 133° |
| 2026-05-06 10:19 | 40.37959 | -73.33598 | 11623 ft | 374 kts | 133° |
| 2026-05-06 10:20 | 40.36382 | -73.30817 | 11885 ft | 385 kts | 133° |
| 2026-05-06 10:20 | 40.34768 | -73.27970 | 12271 ft | 391 kts | 133° |
| 2026-05-06 10:20 | 40.33137 | -73.25092 | 12738 ft | 395 kts | 132° |
| 2026-05-06 10:20 | 40.31517 | -73.22169 | 13231 ft | 399 kts | 130° |
| 2026-05-06 10:21 | 40.29967 | -73.19120 | 13703 ft | 404 kts | 128° |
| 2026-05-06 10:21 | 40.28453 | -73.16000 | 14116 ft | 408 kts | 127° |
| 2026-05-06 10:21 | 40.26933 | -73.12838 | 14498 ft | 412 kts | 127° |
| 2026-05-06 10:21 | 40.25411 | -73.09692 | 14886 ft | 416 kts | 128° |
| 2026-05-06 10:22 | 40.23843 | -73.06490 | 15285 ft | 420 kts | 128° |
| 2026-05-06 10:22 | 40.22251 | -73.03279 | 15669 ft | 423 kts | 128° |
| 2026-05-06 10:22 | 40.20630 | -73.00032 | 16076 ft | 427 kts | 128° |
| 2026-05-06 10:22 | 40.18992 | -72.96766 | 16493 ft | 430 kts | 128° |
| 2026-05-06 10:23 | 40.17343 | -72.93482 | 16905 ft | 434 kts | 128° |
| 2026-05-06 10:23 | 40.15679 | -72.90173 | 17359 ft | 437 kts | 128° |
| 2026-05-06 10:23 | 40.13999 | -72.86833 | 17794 ft | 441 kts | 127° |
| 2026-05-06 10:23 | 40.12308 | -72.83474 | 18193 ft | 444 kts | 127° |
| 2026-05-06 10:24 | 40.10601 | -72.80086 | 18579 ft | 448 kts | 127° |
| 2026-05-06 10:24 | 40.08905 | -72.76661 | 18934 ft | 452 kts | 126° |
| 2026-05-06 10:24 | 40.07275 | -72.73128 | 19315 ft | 456 kts | 124° |
| 2026-05-06 10:24 | 40.05676 | -72.69525 | 19677 ft | 459 kts | 123° |
| 2026-05-06 10:25 | 40.04080 | -72.65894 | 20047 ft | 463 kts | 123° |
| 2026-05-06 10:25 | 40.02467 | -72.62244 | 20408 ft | 466 kts | 123° |
| 2026-05-06 10:25 | 40.00849 | -72.58620 | 20772 ft | 468 kts | 123° |
| 2026-05-06 10:25 | 39.99200 | -72.54958 | 21234 ft | 469 kts | 123° |
| 2026-05-06 10:26 | 39.97533 | -72.51278 | 21617 ft | 472 kts | 123° |
| 2026-05-06 10:26 | 39.95852 | -72.47580 | 21979 ft | 476 kts | 123° |
| 2026-05-06 10:26 | 39.94185 | -72.43834 | 22358 ft | 479 kts | 122° |
| 2026-05-06 10:26 | 39.92525 | -72.40047 | 22728 ft | 483 kts | 122° |
| 2026-05-06 10:27 | 39.90863 | -72.36237 | 23112 ft | 486 kts | 122° |
| 2026-05-06 10:27 | 39.89183 | -72.32391 | 23513 ft | 489 kts | 122° |
| 2026-05-06 10:27 | 39.87497 | -72.28545 | 23827 ft | 492 kts | 122° |
| 2026-05-06 10:27 | 39.85788 | -72.24662 | 24157 ft | 495 kts | 122° |
| 2026-05-06 10:28 | 39.84070 | -72.20772 | 24496 ft | 497 kts | 122° |
| 2026-05-06 10:28 | 39.82341 | -72.16867 | 24831 ft | 500 kts | 122° |
| 2026-05-06 10:28 | 39.80597 | -72.12934 | 25173 ft | 502 kts | 122° |
| 2026-05-06 10:28 | 39.78846 | -72.08992 | 25516 ft | 505 kts | 122° |
| 2026-05-06 10:29 | 39.77083 | -72.05028 | 25845 ft | 507 kts | 122° |
| 2026-05-06 10:29 | 39.75309 | -72.01044 | 26174 ft | 510 kts | 122° |
| 2026-05-06 10:29 | 39.73523 | -71.97049 | 26507 ft | 512 kts | 123° |
| 2026-05-06 10:29 | 39.71716 | -71.93108 | 26819 ft | 514 kts | 123° |
| 2026-05-06 10:30 | 39.69837 | -71.89080 | 27155 ft | 516 kts | 123° |
| 2026-05-06 10:30 | 39.67998 | -71.85162 | 27625 ft | 514 kts | 123° |
| 2026-05-06 10:30 | 39.66130 | -71.81186 | 27967 ft | 516 kts | 123° |
| 2026-05-06 10:30 | 39.64256 | -71.77193 | 28228 ft | 519 kts | 122° |
| 2026-05-06 10:31 | 39.62367 | -71.73163 | 28522 ft | 522 kts | 122° |
| 2026-05-06 10:31 | 39.60473 | -71.69121 | 28817 ft | 524 kts | 122° |
| 2026-05-06 10:31 | 39.58578 | -71.65076 | 29085 ft | 526 kts | 122° |
| 2026-05-06 10:31 | 39.56673 | -71.61014 | 29355 ft | 528 kts | 122° |
| 2026-05-06 10:32 | 39.54760 | -71.56938 | 29631 ft | 530 kts | 122° |
| 2026-05-06 10:32 | 39.52841 | -71.52856 | 29968 ft | 530 kts | 122° |
| 2026-05-06 10:32 | 39.50917 | -71.48768 | 30258 ft | 531 kts | 122° |
| 2026-05-06 10:32 | 39.48989 | -71.44678 | 30537 ft | 531 kts | 122° |
| 2026-05-06 10:33 | 39.47130 | -71.40622 | 30835 ft | 531 kts | 118° |
| 2026-05-06 10:33 | 39.45583 | -71.36218 | 31112 ft | 531 kts | 109° |
| 2026-05-06 10:33 | 39.44585 | -71.31689 | 31378 ft | 530 kts | 100° |
| 2026-05-06 10:33 | 39.44161 | -71.26976 | 31654 ft | 527 kts | 89° |
| 2026-05-06 10:34 | 39.44350 | -71.22270 | 31922 ft | 523 kts | 79° |
| 2026-05-06 10:34 | 39.44987 | -71.17652 | 32202 ft | 520 kts | 76° |
| 2026-05-06 10:34 | 39.45744 | -71.13083 | 32488 ft | 519 kts | 74° |
| 2026-05-06 10:34 | 39.46549 | -71.08542 | 32765 ft | 518 kts | 73° |
| 2026-05-06 10:35 | 39.47367 | -71.04008 | 33041 ft | 517 kts | 73° |
| 2026-05-06 10:35 | 39.48178 | -70.99478 | 33310 ft | 516 kts | 73° |
| 2026-05-06 10:35 | 39.48976 | -70.94952 | 33569 ft | 515 kts | 73° |
| 2026-05-06 10:35 | 39.49760 | -70.90433 | 33816 ft | 515 kts | 74° |
| 2026-05-06 10:36 | 39.50536 | -70.85910 | 34085 ft | 513 kts | 74° |
| 2026-05-06 10:36 | 39.51302 | -70.81410 | 34383 ft | 510 kts | 74° |
| 2026-05-06 10:36 | 39.52064 | -70.76908 | 34539 ft | 511 kts | 74° |
| 2026-05-06 10:36 | 39.52824 | -70.72411 | 34637 ft | 513 kts | 74° |
| 2026-05-06 10:37 | 39.53578 | -70.67944 | 34774 ft | 513 kts | 74° |
| 2026-05-06 10:37 | 39.54339 | -70.63422 | 34913 ft | 513 kts | 74° |
| 2026-05-06 10:37 | 39.55098 | -70.58899 | 35037 ft | 514 kts | 74° |
| 2026-05-06 10:37 | 39.55860 | -70.54353 | 35037 ft | 518 kts | 74° |
| 2026-05-06 10:38 | 39.57390 | -70.45195 | 35115 ft | 523 kts | 75° |
| 2026-05-06 10:38 | 39.58920 | -70.35968 | 35113 ft | 522 kts | 75° |
| 2026-05-06 10:39 | 39.60438 | -70.26769 | 35119 ft | 522 kts | 75° |
| 2026-05-06 10:39 | 39.61951 | -70.17555 | 35134 ft | 522 kts | 75° |
| 2026-05-06 10:40 | 39.63206 | -70.09881 | 35124 ft | 525 kts | 75° |
| 2026-05-06 10:40 | 39.64719 | -70.00587 | 35123 ft | 526 kts | 75° |
| 2026-05-06 10:41 | 39.66221 | -69.91298 | 35139 ft | 526 kts | 75° |
| 2026-05-06 10:41 | 39.67719 | -69.81988 | 35127 ft | 527 kts | 75° |
| 2026-05-06 10:42 | 39.69211 | -69.72669 | 35134 ft | 527 kts | 75° |
| 2026-05-06 10:42 | 39.70695 | -69.63344 | 35150 ft | 527 kts | 76° |
| 2026-05-06 10:43 | 39.72174 | -69.54004 | 35146 ft | 527 kts | 76° |
| 2026-05-06 10:44 | 39.74366 | -69.40069 | 35150 ft | 527 kts | 76° |
| 2026-05-06 10:44 | 39.75824 | -69.30728 | 35154 ft | 527 kts | 76° |
| 2026-05-06 10:45 | 39.77276 | -69.21385 | 35156 ft | 527 kts | 76° |
| 2026-05-06 10:45 | 39.78715 | -69.12064 | 35158 ft | 525 kts | 76° |
| 2026-05-06 10:46 | 39.80143 | -69.02761 | 35164 ft | 524 kts | 76° |
| 2026-05-06 10:46 | 39.81564 | -68.93458 | 35172 ft | 524 kts | 76° |
| 2026-05-06 10:47 | 39.82968 | -68.84215 | 35166 ft | 525 kts | 76° |
| 2026-05-06 10:47 | 39.84375 | -68.74894 | 35167 ft | 524 kts | 76° |
| 2026-05-06 10:48 | 39.85774 | -68.65580 | 35172 ft | 524 kts | 76° |
| 2026-05-06 10:48 | 39.87163 | -68.56271 | 35181 ft | 524 kts | 76° |
| 2026-05-06 10:49 | 39.88544 | -68.46964 | 35178 ft | 522 kts | 76° |
| 2026-05-06 10:49 | 39.89912 | -68.37694 | 35179 ft | 521 kts | 76° |
| 2026-05-06 10:50 | 39.91272 | -68.28423 | 35186 ft | 521 kts | 77° |
| 2026-05-06 10:50 | 39.92798 | -68.19264 | 35175 ft | 520 kts | 69° |
| 2026-05-06 10:51 | 39.95970 | -68.10959 | 35182 ft | 507 kts | 49° |
| 2026-05-06 10:51 | 40.00907 | -68.04627 | 35183 ft | 495 kts | 33° |
| 2026-05-06 10:52 | 40.06474 | -67.99341 | 35192 ft | 495 kts | 30° |
| 2026-05-06 10:52 | 40.12125 | -67.94193 | 35181 ft | 496 kts | 30° |
| 2026-05-06 10:53 | 40.17780 | -67.88999 | 35183 ft | 497 kts | 31° |
| 2026-05-06 10:53 | 40.23416 | -67.83761 | 35189 ft | 497 kts | 31° |
| 2026-05-06 10:54 | 40.29047 | -67.78499 | 35181 ft | 498 kts | 31° |
| 2026-05-06 10:54 | 40.34695 | -67.73207 | 35180 ft | 499 kts | 31° |
| 2026-05-06 10:55 | 40.40338 | -67.67912 | 35195 ft | 499 kts | 31° |
| 2026-05-06 10:55 | 40.45990 | -67.62599 | 35180 ft | 500 kts | 31° |
| 2026-05-06 10:56 | 40.51648 | -67.57268 | 35178 ft | 501 kts | 31° |
| 2026-05-06 10:56 | 40.57269 | -67.51961 | 35180 ft | 500 kts | 31° |
| 2026-05-06 10:57 | 40.62909 | -67.46623 | 35183 ft | 499 kts | 31° |
| 2026-05-06 10:57 | 40.68534 | -67.41290 | 35180 ft | 498 kts | 31° |
| 2026-05-06 10:58 | 40.74155 | -67.35951 | 35192 ft | 499 kts | 31° |
| 2026-05-06 10:58 | 40.79794 | -67.30582 | 35177 ft | 500 kts | 31° |
| 2026-05-06 10:59 | 40.85432 | -67.25203 | 35181 ft | 500 kts | 31° |
| 2026-05-06 10:59 | 40.91067 | -67.19814 | 35190 ft | 500 kts | 32° |
| 2026-05-06 11:00 | 40.96698 | -67.14417 | 35189 ft | 499 kts | 32° |
| 2026-05-06 11:00 | 41.02328 | -67.09011 | 35180 ft | 499 kts | 32° |
| 2026-05-06 11:01 | 41.07742 | -67.03219 | 35197 ft | 505 kts | 42° |
| 2026-05-06 11:01 | 41.11782 | -66.95605 | 35181 ft | 515 kts | 62° |
| 2026-05-06 11:01 | 41.13030 | -66.91136 | 35184 ft | 519 kts | 73° |
| 2026-05-06 11:02 | 41.13912 | -66.86488 | 35187 ft | 520 kts | 75° |
| 2026-05-06 11:02 | 41.15394 | -66.77080 | 35181 ft | 521 kts | 77° |
| 2026-05-06 11:03 | 41.16793 | -66.67639 | 35187 ft | 521 kts | 77° |
| 2026-05-06 11:03 | 41.18218 | -66.58218 | 35212 ft | 521 kts | 76° |
| 2026-05-06 11:04 | 41.19665 | -66.48798 | 35200 ft | 520 kts | 76° |
| 2026-05-06 11:04 | 41.21110 | -66.39385 | 35200 ft | 520 kts | 76° |
| 2026-05-06 11:05 | 41.22546 | -66.29976 | 35197 ft | 520 kts | 76° |
| 2026-05-06 11:05 | 41.23975 | -66.20550 | 35210 ft | 518 kts | 76° |
| 2026-05-06 11:06 | 41.25371 | -66.11276 | 35203 ft | 514 kts | 76° |
| 2026-05-06 11:06 | 41.26767 | -66.01960 | 35202 ft | 514 kts | 77° |
| 2026-05-06 11:07 | 41.28161 | -65.92604 | 35212 ft | 516 kts | 77° |
| 2026-05-06 11:07 | 41.29544 | -65.83262 | 35207 ft | 513 kts | 77° |
| 2026-05-06 11:08 | 41.30913 | -65.73955 | 35214 ft | 512 kts | 77° |
| 2026-05-06 11:08 | 41.32274 | -65.64653 | 35220 ft | 512 kts | 77° |
| 2026-05-06 11:09 | 41.33628 | -65.55342 | 35220 ft | 511 kts | 78° |
| 2026-05-06 11:09 | 41.34961 | -65.46119 | 35228 ft | 511 kts | 77° |
| 2026-05-06 11:10 | 41.36300 | -65.36805 | 35232 ft | 512 kts | 77° |
| 2026-05-06 11:10 | 41.37631 | -65.27495 | 35233 ft | 512 kts | 78° |
| 2026-05-06 11:11 | 41.38951 | -65.18195 | 35240 ft | 510 kts | 78° |
| 2026-05-06 11:11 | 41.40262 | -65.08901 | 35241 ft | 510 kts | 78° |
| 2026-05-06 11:12 | 41.41566 | -64.99604 | 35244 ft | 510 kts | 78° |
| 2026-05-06 11:12 | 41.42861 | -64.90313 | 35239 ft | 510 kts | 79° |
| 2026-05-06 11:13 | 41.44152 | -64.80994 | 35250 ft | 510 kts | 79° |
| 2026-05-06 11:13 | 41.45433 | -64.71690 | 35251 ft | 510 kts | 79° |
| 2026-05-06 11:14 | 41.46699 | -64.62437 | 35249 ft | 510 kts | 79° |
| 2026-05-06 11:14 | 41.47973 | -64.53067 | 35235 ft | 510 kts | 79° |
| 2026-05-06 11:15 | 41.49224 | -64.43807 | 35244 ft | 511 kts | 79° |
| 2026-05-06 11:15 | 41.50477 | -64.34473 | 35253 ft | 512 kts | 79° |
| 2026-05-06 11:16 | 41.51723 | -64.25131 | 35244 ft | 511 kts | 79° |
| 2026-05-06 11:16 | 41.52959 | -64.15807 | 35250 ft | 511 kts | 79° |
| 2026-05-06 11:17 | 41.54187 | -64.06482 | 35266 ft | 510 kts | 80° |
| 2026-05-06 11:17 | 41.55409 | -63.97138 | 35265 ft | 510 kts | 80° |
| 2026-05-06 11:18 | 41.56624 | -63.87787 | 35263 ft | 510 kts | 80° |
| 2026-05-06 11:18 | 41.57831 | -63.78438 | 35257 ft | 511 kts | 80° |
| 2026-05-06 11:19 | 41.59023 | -63.69143 | 35268 ft | 510 kts | 80° |
| 2026-05-06 11:19 | 41.60212 | -63.59806 | 35266 ft | 510 kts | 80° |
| 2026-05-06 11:20 | 41.61394 | -63.50466 | 35251 ft | 510 kts | 81° |
| 2026-05-06 11:20 | 41.62569 | -63.41117 | 35257 ft | 510 kts | 81° |
| 2026-05-06 11:21 | 41.63735 | -63.31777 | 35261 ft | 509 kts | 81° |
| 2026-05-06 11:21 | 41.64892 | -63.22442 | 35262 ft | 509 kts | 81° |
| 2026-05-06 11:22 | 41.66041 | -63.13108 | 35257 ft | 509 kts | 81° |
| 2026-05-06 11:22 | 41.67182 | -63.03777 | 35271 ft | 509 kts | 81° |
| 2026-05-06 11:23 | 41.68317 | -62.94426 | 35275 ft | 509 kts | 81° |
| 2026-05-06 11:23 | 41.69444 | -62.85077 | 35274 ft | 509 kts | 81° |
| 2026-05-06 11:24 | 41.70558 | -62.75770 | 35265 ft | 509 kts | 81° |
| 2026-05-06 11:24 | 41.71671 | -62.66410 | 35280 ft | 509 kts | 81° |
| 2026-05-06 11:25 | 41.72775 | -62.57048 | 35276 ft | 509 kts | 81° |
| 2026-05-06 11:25 | 41.73871 | -62.47694 | 35281 ft | 509 kts | 81° |
| 2026-05-06 11:26 | 41.74962 | -62.38317 | 35282 ft | 509 kts | 81° |
| 2026-05-06 11:26 | 41.76045 | -62.28932 | 35283 ft | 510 kts | 82° |
| 2026-05-06 11:27 | 41.77114 | -62.19601 | 35282 ft | 510 kts | 82° |
| 2026-05-06 11:27 | 41.78182 | -62.10214 | 35288 ft | 510 kts | 82° |
| 2026-05-06 11:28 | 41.79242 | -62.00825 | 35289 ft | 509 kts | 82° |
| 2026-05-06 11:28 | 41.80294 | -61.91436 | 35304 ft | 510 kts | 82° |
| 2026-05-06 11:29 | 41.81169 | -61.83566 | 35286 ft | 510 kts | 82° |
| 2026-05-06 11:29 | 41.82203 | -61.74211 | 35301 ft | 511 kts | 82° |
| 2026-05-06 11:30 | 41.83236 | -61.64784 | 35296 ft | 511 kts | 82° |
| 2026-05-06 11:30 | 41.84262 | -61.55359 | 35298 ft | 511 kts | 82° |
| 2026-05-06 11:31 | 41.85281 | -61.45916 | 35299 ft | 511 kts | 82° |
| 2026-05-06 11:31 | 41.86291 | -61.36479 | 35310 ft | 511 kts | 82° |
| 2026-05-06 11:32 | 41.87296 | -61.27018 | 35295 ft | 512 kts | 82° |
| 2026-05-06 11:32 | 41.88288 | -61.17600 | 35305 ft | 513 kts | 83° |
| 2026-05-06 11:33 | 41.89279 | -61.08126 | 35312 ft | 513 kts | 83° |
| 2026-05-06 11:33 | 41.90262 | -60.98641 | 35312 ft | 513 kts | 83° |
| 2026-05-06 11:34 | 41.91237 | -60.89151 | 35319 ft | 513 kts | 83° |
| 2026-05-06 11:34 | 41.92204 | -60.79665 | 35309 ft | 514 kts | 83° |
| 2026-05-06 11:35 | 41.93166 | -60.70152 | 35318 ft | 514 kts | 83° |
| 2026-05-06 11:35 | 41.94120 | -60.60639 | 35320 ft | 514 kts | 83° |
| 2026-05-06 11:36 | 41.95067 | -60.51110 | 35320 ft | 515 kts | 83° |
| 2026-05-06 11:36 | 41.96000 | -60.41639 | 35324 ft | 515 kts | 83° |
| 2026-05-06 11:37 | 41.96932 | -60.32094 | 35329 ft | 515 kts | 83° |
| 2026-05-06 11:37 | 41.97858 | -60.22530 | 35325 ft | 516 kts | 83° |
| 2026-05-06 11:38 | 41.98778 | -60.12944 | 35330 ft | 516 kts | 83° |
| 2026-05-06 11:38 | 41.99701 | -60.03356 | 35332 ft | 517 kts | 82° |
| 2026-05-06 11:39 | 42.01512 | -59.94004 | 35335 ft | 518 kts | 73° |
| 2026-05-06 11:39 | 42.03765 | -59.84784 | 35337 ft | 519 kts | 72° |
| 2026-05-06 11:40 | 42.06073 | -59.75628 | 35339 ft | 520 kts | 71° |
| 2026-05-06 11:40 | 42.08385 | -59.66395 | 35336 ft | 520 kts | 72° |
| 2026-05-06 11:41 | 42.10672 | -59.57164 | 35338 ft | 520 kts | 72° |
| 2026-05-06 11:41 | 42.12952 | -59.47897 | 35341 ft | 522 kts | 72° |
| 2026-05-06 11:42 | 42.15229 | -59.38602 | 35343 ft | 522 kts | 72° |
| 2026-05-06 11:42 | 42.17497 | -59.29310 | 35353 ft | 522 kts | 72° |
| 2026-05-06 11:43 | 42.19761 | -59.19998 | 35343 ft | 522 kts | 72° |
| 2026-05-06 11:43 | 42.22019 | -59.10675 | 35350 ft | 522 kts | 72° |
| 2026-05-06 11:44 | 42.25393 | -58.96672 | 35355 ft | 525 kts | 73° |
| 2026-05-06 11:44 | 42.27644 | -58.87278 | 35363 ft | 526 kts | 73° |
| 2026-05-06 11:45 | 42.29889 | -58.77874 | 35362 ft | 526 kts | 73° |
| 2026-05-06 11:45 | 42.32114 | -58.68517 | 35366 ft | 526 kts | 73° |
| 2026-05-06 11:46 | 42.34343 | -58.59103 | 35364 ft | 526 kts | 73° |
| 2026-05-06 11:46 | 42.36568 | -58.49665 | 35366 ft | 526 kts | 73° |
| 2026-05-06 11:47 | 42.38783 | -58.40230 | 35368 ft | 528 kts | 73° |
| 2026-05-06 11:47 | 42.41006 | -58.30720 | 35359 ft | 530 kts | 73° |
| 2026-05-06 11:48 | 42.43222 | -58.21199 | 35368 ft | 531 kts | 73° |
| 2026-05-06 11:48 | 42.45433 | -58.11664 | 35367 ft | 531 kts | 73° |
| 2026-05-06 11:49 | 42.47637 | -58.02113 | 35382 ft | 531 kts | 73° |
| 2026-05-06 11:49 | 42.49830 | -57.92570 | 35377 ft | 530 kts | 74° |
| 2026-05-06 11:50 | 42.52001 | -57.83084 | 35367 ft | 531 kts | 74° |
| 2026-05-06 11:50 | 42.54190 | -57.73475 | 35377 ft | 534 kts | 74° |
| 2026-05-06 11:51 | 42.56377 | -57.63833 | 35379 ft | 535 kts | 74° |
| 2026-05-06 11:51 | 42.58553 | -57.54200 | 35374 ft | 534 kts | 74° |
| 2026-05-06 11:52 | 42.60722 | -57.44557 | 35378 ft | 534 kts | 74° |